createdAt,value
2018-06-20T00:01:14.446Z,99.90
2018-06-20T00:03:43.441Z,99.90
2018-06-20T00:06:12.474Z,99.90
2018-06-20T00:08:46.711Z,99.90
2018-06-20T00:11:15.170Z,99.90
2018-06-20T00:13:43.409Z,99.90
2018-06-20T00:16:11.587Z,99.90
2018-06-20T00:18:39.838Z,99.90
2018-06-20T00:21:08.945Z,99.90
2018-06-20T00:23:37.863Z,99.90
2018-06-20T00:26:06.165Z,99.90
2018-06-20T00:28:34.360Z,99.90
2018-06-20T00:31:02.541Z,99.90
2018-06-20T00:33:30.742Z,99.90
2018-06-20T00:35:58.945Z,99.90
2018-06-20T00:38:27.106Z,99.90
2018-06-20T00:40:55.281Z,99.90
2018-06-20T00:43:23.441Z,99.90
2018-06-20T00:45:52.081Z,99.90
2018-06-20T00:50:49.437Z,99.90
2018-06-20T00:53:18.430Z,99.90
2018-06-20T00:55:57.953Z,99.90
2018-06-20T00:58:26.172Z,99.90
2018-06-20T01:00:54.772Z,99.90
2018-06-20T01:03:23.800Z,99.90
2018-06-20T01:05:52.862Z,99.90
2018-06-20T01:08:21.438Z,99.90
2018-06-20T01:10:49.625Z,99.90
2018-06-20T01:13:17.809Z,99.90
2018-06-20T01:15:46.933Z,99.90
2018-06-20T01:18:15.071Z,99.90
2018-06-20T01:20:43.291Z,99.90
2018-06-20T01:23:11.489Z,99.90
2018-06-20T01:25:39.670Z,99.90
2018-06-20T01:28:07.897Z,99.90
2018-06-20T01:30:37.138Z,99.90
2018-06-20T01:33:05.409Z,99.90
2018-06-20T01:35:33.597Z,99.90
2018-06-20T01:38:02.779Z,99.90
2018-06-20T01:40:31.002Z,99.90
2018-06-20T01:42:59.757Z,99.90
2018-06-20T01:45:28.649Z,99.90
2018-06-20T01:47:56.856Z,99.90
2018-06-20T01:50:27.959Z,99.90
2018-06-20T01:52:57.438Z,99.90
2018-06-20T01:57:54.233Z,99.90
2018-06-20T02:00:23.418Z,99.90
2018-06-20T02:02:53.154Z,99.90
2018-06-20T02:05:21.778Z,99.90
2018-06-20T02:07:50.782Z,99.90
2018-06-20T02:10:20.161Z,99.90
2018-06-20T02:12:48.582Z,99.90
2018-06-20T02:15:17.153Z,99.90
2018-06-20T02:17:45.768Z,99.90
2018-06-20T02:20:13.969Z,99.90
2018-06-20T02:22:42.170Z,99.90
2018-06-20T02:25:11.413Z,99.90
2018-06-20T02:27:39.585Z,99.90
2018-06-20T02:30:08.295Z,99.90
2018-06-20T02:32:36.708Z,99.90
2018-06-20T02:35:06.352Z,99.90
2018-06-20T02:37:34.932Z,99.90
2018-06-20T02:40:03.645Z,99.90
2018-06-20T02:42:32.958Z,99.90
2018-06-20T02:45:01.197Z,99.90
2018-06-20T02:47:34.717Z,99.90
2018-06-20T02:50:03.837Z,99.90
2018-06-20T02:52:32.847Z,99.90
2018-06-20T02:55:01.885Z,99.90
2018-06-20T02:57:30.102Z,99.90
2018-06-20T02:59:58.580Z,99.90
2018-06-20T03:02:26.817Z,99.90
2018-06-20T03:04:56.582Z,99.90
2018-06-20T03:07:25.653Z,99.90
2018-06-20T03:09:53.888Z,99.90
2018-06-20T03:12:22.090Z,99.90
2018-06-20T03:14:51.016Z,99.90
2018-06-20T03:17:20.534Z,99.90
2018-06-20T03:19:48.752Z,99.90
2018-06-20T03:22:16.981Z,99.90
2018-06-20T03:24:45.193Z,99.90
2018-06-20T03:27:13.395Z,99.90
2018-06-20T03:29:41.586Z,99.90
2018-06-20T03:32:09.842Z,99.90
2018-06-20T03:34:38.026Z,99.90
2018-06-20T03:37:06.293Z,99.90
2018-06-20T03:39:34.845Z,99.90
2018-06-20T03:42:03.845Z,99.90
2018-06-20T03:44:32.118Z,99.90
2018-06-20T03:47:00.355Z,99.90
2018-06-20T03:49:29.245Z,99.90
2018-06-20T03:51:57.475Z,99.90
2018-06-20T03:54:26.493Z,99.90
2018-06-20T03:56:55.720Z,99.90
2018-06-20T03:59:24.029Z,99.90
2018-06-20T04:01:52.245Z,99.90
2018-06-20T04:04:20.513Z,99.90
2018-06-20T04:06:49.269Z,99.90
2018-06-20T04:09:17.787Z,99.90
2018-06-20T04:11:45.991Z,99.90
2018-06-20T04:14:14.201Z,99.90
2018-06-20T04:16:42.706Z,99.90
2018-06-20T04:19:10.909Z,99.90
2018-06-20T04:21:39.137Z,99.90
2018-06-20T04:24:07.315Z,99.90
2018-06-20T04:26:36.578Z,99.90
2018-06-20T04:29:04.888Z,99.90
2018-06-20T04:31:33.113Z,99.90
2018-06-20T04:34:01.941Z,99.90
2018-06-20T04:36:30.161Z,99.90
2018-06-20T04:38:59.361Z,99.90
2018-06-20T04:41:27.926Z,99.90
2018-06-20T04:43:56.126Z,99.90
2018-06-20T04:46:24.407Z,99.90
2018-06-20T04:48:53.132Z,99.90
2018-06-20T04:51:21.414Z,99.90
2018-06-20T04:53:49.690Z,99.90
2018-06-20T04:56:17.886Z,99.90
2018-06-20T04:58:46.061Z,99.90
2018-06-20T05:01:15.292Z,99.90
2018-06-20T05:03:43.471Z,99.90
2018-06-20T05:06:11.688Z,99.90
2018-06-20T05:08:39.889Z,99.90
2018-06-20T05:11:08.107Z,99.90
2018-06-20T05:13:36.330Z,99.90
2018-06-20T05:16:05.399Z,99.90
2018-06-20T05:18:33.653Z,99.90
2018-06-20T05:21:02.462Z,99.90
2018-06-20T05:23:30.632Z,99.90
2018-06-20T05:25:58.913Z,99.90
2018-06-20T05:28:27.141Z,99.90
2018-06-20T05:30:56.473Z,99.90
2018-06-20T05:33:24.658Z,99.90
2018-06-20T05:35:53.141Z,99.90
2018-06-20T05:38:21.394Z,99.90
2018-06-20T05:40:49.589Z,99.90
2018-06-20T05:43:17.825Z,99.90
2018-06-20T05:45:46.522Z,99.90
2018-06-20T05:48:14.801Z,99.90
2018-06-20T05:50:43.033Z,99.90
2018-06-20T05:53:11.309Z,99.90
2018-06-20T05:55:39.982Z,99.90
2018-06-20T05:58:08.185Z,99.90
2018-06-20T06:00:36.417Z,99.90
2018-06-20T06:03:04.639Z,99.90
2018-06-20T06:05:32.896Z,99.90
2018-06-20T06:08:07.011Z,99.90
2018-06-20T06:10:36.071Z,99.90
2018-06-20T06:13:04.622Z,99.90
2018-06-20T06:15:33.778Z,99.90
2018-06-20T06:18:02.026Z,99.90
2018-06-20T06:20:31.611Z,99.90
2018-06-20T06:22:59.812Z,99.90
2018-06-20T06:25:28.405Z,99.90
2018-06-20T06:27:57.559Z,99.90
2018-06-20T06:30:27.440Z,99.90
2018-06-20T06:32:55.649Z,99.90
2018-06-20T06:35:23.875Z,99.90
2018-06-20T06:37:52.073Z,99.90
2018-06-20T06:40:20.278Z,99.90
2018-06-20T06:42:49.773Z,99.90
2018-06-20T06:45:18.002Z,99.90
2018-06-20T06:47:46.417Z,99.90
2018-06-20T06:50:14.529Z,99.90
2018-06-20T06:52:42.791Z,99.90
2018-06-20T06:55:10.971Z,99.90
2018-06-20T06:57:39.883Z,99.90
2018-06-20T07:00:08.131Z,99.90
2018-06-20T07:02:37.180Z,99.90
2018-06-20T07:05:05.415Z,99.90
2018-06-20T07:07:33.603Z,99.90
2018-06-20T07:10:02.791Z,99.90
2018-06-20T07:12:31.664Z,99.90
2018-06-20T07:14:59.888Z,99.90
2018-06-20T07:17:28.086Z,99.90
2018-06-20T07:19:56.285Z,99.90
2018-06-20T07:22:24.920Z,99.90
2018-06-20T07:24:53.095Z,99.90
2018-06-20T07:27:21.342Z,99.90
2018-06-20T07:29:49.638Z,99.90
2018-06-20T07:32:17.821Z,99.90
2018-06-20T07:34:46.078Z,99.90
2018-06-20T07:37:14.296Z,99.90
2018-06-20T07:39:42.513Z,99.90
2018-06-20T07:42:10.717Z,99.90
2018-06-20T07:44:39.844Z,99.90
2018-06-20T07:47:08.065Z,99.90
2018-06-20T07:49:37.277Z,99.90
2018-06-20T07:52:06.181Z,99.90
2018-06-20T07:54:34.934Z,99.90
2018-06-20T07:57:03.397Z,99.90
2018-06-20T07:59:36.829Z,99.90
2018-06-20T08:02:22.033Z,99.90
2018-06-20T08:04:55.958Z,99.90
2018-06-20T08:07:30.220Z,99.90
2018-06-20T08:10:03.954Z,99.90
2018-06-20T08:12:37.626Z,99.90
2018-06-20T08:15:12.965Z,99.90
2018-06-20T08:17:46.772Z,99.90
2018-06-20T08:20:19.781Z,99.90
2018-06-20T08:22:47.986Z,99.90
2018-06-20T08:25:17.089Z,99.90
2018-06-20T08:27:45.921Z,99.90
2018-06-20T08:30:14.130Z,99.90
2018-06-20T08:32:42.362Z,99.90
2018-06-20T08:35:11.081Z,99.90
2018-06-20T08:37:39.361Z,99.90
2018-06-20T08:40:07.625Z,99.90
2018-06-20T08:42:35.838Z,99.90
2018-06-20T08:45:04.498Z,99.90
2018-06-20T08:47:32.742Z,99.90
2018-06-20T08:50:00.962Z,99.90
2018-06-20T08:52:29.882Z,99.90
2018-06-20T08:54:58.085Z,99.90
2018-06-20T08:57:26.742Z,99.90
2018-06-20T08:59:54.957Z,99.90
2018-06-20T09:02:23.869Z,99.90
2018-06-20T09:04:57.589Z,99.90
2018-06-20T09:07:31.699Z,99.90
2018-06-20T09:10:05.385Z,99.90
2018-06-20T09:13:42.613Z,99.90
2018-06-20T09:16:16.585Z,99.90
2018-06-20T09:18:50.251Z,99.90
2018-06-20T09:21:18.469Z,99.90
2018-06-20T09:23:46.730Z,99.90
2018-06-20T09:26:15.926Z,99.90
2018-06-20T09:28:44.113Z,99.90
2018-06-20T09:31:12.348Z,99.90
2018-06-20T09:33:40.587Z,99.90
2018-06-20T09:36:09.314Z,99.90
2018-06-20T09:38:37.597Z,99.90
2018-06-20T09:41:06.126Z,99.90
2018-06-20T09:43:34.344Z,99.90
2018-06-20T09:46:03.215Z,99.90
2018-06-20T09:48:32.673Z,99.90
2018-06-20T09:51:00.914Z,99.90
2018-06-20T09:53:30.066Z,99.90
2018-06-20T09:55:58.253Z,99.90
2018-06-20T09:58:26.478Z,99.90
2018-06-20T10:01:00.402Z,99.50
2018-06-20T10:03:35.462Z,99.50
2018-06-20T10:07:10.731Z,99.40
2018-06-20T10:09:44.310Z,98.00
2018-06-20T10:12:16.757Z,97.60
2018-06-20T10:14:44.986Z,95.90
2018-06-20T10:17:13.146Z,95.60
2018-06-20T10:19:42.854Z,95.70
2018-06-20T10:22:11.129Z,96.50
2018-06-20T10:24:39.948Z,95.30
2018-06-20T10:27:08.239Z,94.50
2018-06-20T10:29:36.481Z,93.40
2018-06-20T10:32:08.748Z,92.30
2018-06-20T10:34:36.937Z,93.30
2018-06-20T10:37:05.195Z,92.90
2018-06-20T10:39:33.441Z,93.80
2018-06-20T10:42:01.947Z,92.80
2018-06-20T10:44:30.168Z,92.80
2018-06-20T10:47:03.738Z,92.40
2018-06-20T10:49:32.001Z,92.00
2018-06-20T10:52:00.238Z,91.30
2018-06-20T10:54:28.512Z,90.60
2018-06-20T10:57:02.378Z,90.20
2018-06-20T10:59:36.602Z,90.30
2018-06-20T11:02:10.049Z,90.40
2018-06-20T11:05:42.105Z,90.50
2018-06-20T11:08:17.259Z,90.70
2018-06-20T11:10:50.950Z,88.50
2018-06-20T11:13:19.410Z,89.00
2018-06-20T11:15:47.617Z,86.10
2018-06-20T11:18:15.766Z,89.40
2018-06-20T11:20:49.357Z,87.70
2018-06-20T11:23:17.601Z,89.10
2018-06-20T11:25:45.809Z,89.40
2018-06-20T11:28:14.965Z,89.90
2018-06-20T11:30:44.492Z,90.50
2018-06-20T11:33:12.990Z,90.30
2018-06-20T11:35:41.253Z,90.40
2018-06-20T11:38:09.454Z,90.10
2018-06-20T11:40:37.726Z,89.90
2018-06-20T11:43:07.145Z,90.20
2018-06-20T11:45:40.747Z,87.80
2018-06-20T11:48:09.170Z,86.80
2018-06-20T11:50:37.561Z,86.00
2018-06-20T11:53:07.162Z,84.30
2018-06-20T11:55:36.765Z,82.10
2018-06-20T11:58:10.893Z,84.40
2018-06-20T12:00:44.494Z,79.90
2018-06-20T12:03:18.842Z,79.00
2018-06-20T12:05:52.554Z,79.40
2018-06-20T12:08:26.488Z,78.30
2018-06-20T12:13:33.472Z,78.30
2018-06-20T12:16:07.185Z,77.60
2018-06-20T12:21:14.474Z,79.50
2018-06-20T12:23:48.266Z,80.10
2018-06-20T12:26:22.021Z,80.90
2018-06-20T12:28:55.697Z,80.30
2018-06-20T12:31:30.197Z,78.60
2018-06-20T12:34:03.742Z,80.30
2018-06-20T12:36:37.476Z,80.10
2018-06-20T12:39:07.049Z,83.60
2018-06-20T12:41:40.591Z,84.10
2018-06-20T12:44:14.297Z,84.60
2018-06-20T12:46:50.118Z,86.40
2018-06-20T12:49:21.130Z,86.50
2018-06-20T12:51:49.764Z,88.00
2018-06-20T12:54:18.140Z,87.70
2018-06-20T12:56:46.966Z,86.80
2018-06-20T12:59:15.170Z,84.40
2018-06-20T13:01:44.157Z,84.00
2018-06-20T13:04:12.670Z,83.40
2018-06-20T13:06:40.882Z,81.80
2018-06-20T13:09:11.279Z,83.30
2018-06-20T13:11:39.729Z,81.70
2018-06-20T13:14:08.117Z,84.80
2018-06-20T13:16:36.305Z,85.70
2018-06-20T13:19:04.553Z,86.60
2018-06-20T13:21:33.185Z,87.20
2018-06-20T13:24:01.724Z,87.80
2018-06-20T13:26:29.969Z,87.40
2018-06-20T13:28:58.185Z,86.70
2018-06-20T13:31:31.849Z,86.20
2018-06-20T13:34:05.584Z,87.30
2018-06-20T13:36:39.220Z,88.70
2018-06-20T13:39:13.197Z,88.80
2018-06-20T13:41:47.162Z,88.60
2018-06-20T13:44:20.772Z,89.20
2018-06-20T13:46:55.062Z,88.80
2018-06-20T13:49:23.361Z,87.30
2018-06-20T13:51:52.267Z,85.90
2018-06-20T13:54:20.809Z,83.80
2018-06-20T13:56:49.072Z,81.20
2018-06-20T13:59:17.873Z,78.70
2018-06-20T14:01:46.053Z,78.40
2018-06-20T14:04:14.363Z,79.00
2018-06-20T14:06:42.763Z,77.20
2018-06-20T14:09:11.885Z,79.10
2018-06-20T14:11:40.533Z,80.60
2018-06-20T14:14:10.606Z,81.80
2018-06-20T14:16:38.880Z,81.50
2018-06-20T14:19:07.084Z,81.90
2018-06-20T14:21:42.138Z,83.40
2018-06-20T14:24:11.341Z,82.40
2018-06-20T14:26:40.661Z,85.00
2018-06-20T14:29:10.261Z,82.40
2018-06-20T14:31:43.985Z,81.50
2018-06-20T14:34:17.730Z,83.20
2018-06-20T14:36:52.411Z,82.10
2018-06-20T14:39:25.986Z,82.50
2018-06-20T14:42:00.883Z,81.80
2018-06-20T14:44:29.135Z,82.50
2018-06-20T14:46:57.322Z,81.20
2018-06-20T14:49:25.822Z,76.70
2018-06-20T14:51:53.982Z,77.60
2018-06-20T14:54:22.222Z,74.10
2018-06-20T14:56:51.175Z,73.30
2018-06-20T14:59:19.373Z,72.70
2018-06-20T15:01:47.583Z,72.90
2018-06-20T15:04:16.383Z,73.00
2018-06-20T15:06:45.558Z,73.40
2018-06-20T15:09:13.782Z,72.30
2018-06-20T15:11:41.969Z,73.40
2018-06-20T15:14:10.241Z,71.30
2018-06-20T15:16:43.886Z,73.40
2018-06-20T15:19:12.679Z,73.40
2018-06-20T15:21:40.915Z,72.60
2018-06-20T15:24:09.173Z,71.60
2018-06-20T15:26:42.764Z,72.30
2018-06-20T15:29:16.732Z,72.70
2018-06-20T15:31:50.457Z,74.10
2018-06-20T15:34:24.225Z,72.70
2018-06-20T15:37:58.012Z,73.30
2018-06-20T15:40:27.654Z,73.00
2018-06-20T15:42:57.074Z,72.20
2018-06-20T15:45:25.290Z,72.30
2018-06-20T15:47:53.789Z,73.00
2018-06-20T15:50:22.181Z,72.30
2018-06-20T15:52:50.785Z,72.20
2018-06-20T15:55:18.961Z,72.60
2018-06-20T15:57:47.225Z,72.30
2018-06-20T16:00:15.737Z,73.10
2018-06-20T16:02:44.015Z,74.10
2018-06-20T16:05:14.030Z,75.90
2018-06-20T16:07:42.409Z,75.10
2018-06-20T16:10:15.686Z,73.70
2018-06-20T16:12:44.421Z,75.30
2018-06-20T16:15:12.714Z,73.60
2018-06-20T16:17:41.214Z,73.40
2018-06-20T16:20:16.793Z,72.10
2018-06-20T16:22:50.933Z,71.70
2018-06-20T16:25:25.029Z,71.70
2018-06-20T16:27:58.838Z,70.80
2018-06-20T16:30:35.127Z,71.70
2018-06-20T16:33:04.393Z,71.10
2018-06-20T16:35:33.173Z,71.20
2018-06-20T16:38:02.676Z,71.40
2018-06-20T16:40:31.158Z,70.80
2018-06-20T16:42:59.351Z,72.70
2018-06-20T16:45:27.576Z,73.20
2018-06-20T16:47:55.737Z,73.70
2018-06-20T16:50:23.941Z,74.40
2018-06-20T16:52:52.993Z,74.00
2018-06-20T16:55:21.536Z,75.50
2018-06-20T16:57:49.726Z,74.70
2018-06-20T17:00:17.938Z,75.90
2018-06-20T17:02:46.650Z,75.20
2018-06-20T17:05:15.862Z,76.00
2018-06-20T17:07:44.365Z,77.10
2018-06-20T17:10:13.452Z,76.50
2018-06-20T17:13:48.158Z,77.40
2018-06-20T17:16:21.703Z,77.10
2018-06-20T17:18:55.398Z,78.70
2018-06-20T17:21:29.069Z,79.00
2018-06-20T17:24:02.699Z,78.90
2018-06-20T17:26:30.896Z,78.50
2018-06-20T17:29:00.120Z,79.80
2018-06-20T17:31:28.337Z,79.60
2018-06-20T17:33:56.513Z,80.40
2018-06-20T17:36:24.763Z,78.80
2018-06-20T17:38:52.961Z,80.10
2018-06-20T17:41:21.966Z,80.90
2018-06-20T17:43:50.254Z,79.70
2018-06-20T17:46:18.488Z,80.00
2018-06-20T17:48:47.254Z,79.60
2018-06-20T17:51:16.118Z,79.80
2018-06-20T17:53:44.938Z,79.60
2018-06-20T17:56:13.186Z,80.40
2018-06-20T17:58:41.435Z,81.00
2018-06-20T18:01:11.164Z,81.10
2018-06-20T18:03:40.594Z,81.80
2018-06-20T18:06:15.952Z,82.00
2018-06-20T18:08:49.661Z,82.60
2018-06-20T18:12:21.869Z,81.80
2018-06-20T18:14:55.453Z,82.80
2018-06-20T18:17:24.205Z,82.30
2018-06-20T18:19:53.007Z,81.90
2018-06-20T18:22:21.221Z,82.30
2018-06-20T18:24:49.482Z,82.70
2018-06-20T18:27:18.241Z,83.20
2018-06-20T18:29:46.457Z,83.40
2018-06-20T18:32:15.170Z,82.80
2018-06-20T18:34:44.388Z,85.20
2018-06-20T18:37:12.582Z,83.80
2018-06-20T18:39:47.301Z,84.70
2018-06-20T18:42:15.949Z,84.80
2018-06-20T18:44:47.454Z,84.50
2018-06-20T18:47:21.390Z,84.30
2018-06-20T18:49:49.990Z,85.70
2018-06-20T18:52:19.077Z,85.70
2018-06-20T18:54:47.388Z,87.70
2018-06-20T18:57:21.371Z,90.20
2018-06-20T18:59:55.026Z,90.40
2018-06-20T19:02:29.113Z,91.10
2018-06-20T19:05:02.833Z,91.70
2018-06-20T19:07:36.443Z,92.30
2018-06-20T19:10:04.663Z,93.40
2018-06-20T19:12:32.833Z,94.30
2018-06-20T19:15:01.544Z,95.10
2018-06-20T19:17:29.722Z,95.90
2018-06-20T19:19:57.981Z,96.90
2018-06-20T19:22:26.193Z,97.00
2018-06-20T19:24:54.427Z,97.40
2018-06-20T19:27:22.733Z,97.60
2018-06-20T19:29:50.928Z,97.90
2018-06-20T19:32:19.232Z,98.40
2018-06-20T19:34:47.866Z,98.80
2018-06-20T19:37:17.262Z,99.20
2018-06-20T19:39:50.491Z,99.90
2018-06-20T19:42:20.083Z,99.90
2018-06-20T19:44:48.462Z,99.90
2018-06-20T19:47:16.687Z,99.90
2018-06-20T19:49:45.614Z,99.90
2018-06-20T19:52:14.722Z,99.90
2018-06-20T19:57:12.597Z,99.90
2018-06-20T19:59:42.447Z,99.90
2018-06-20T20:02:11.371Z,99.90
2018-06-20T20:04:39.630Z,99.90
2018-06-20T20:07:07.814Z,99.90
2018-06-20T20:09:36.405Z,99.90
2018-06-20T20:12:04.682Z,99.90
2018-06-20T20:14:32.961Z,99.90
2018-06-20T20:17:02.320Z,99.90
2018-06-20T20:19:30.509Z,99.90
2018-06-20T20:21:58.789Z,99.90
2018-06-20T20:24:27.005Z,99.90
2018-06-20T20:26:55.802Z,99.90
2018-06-20T20:29:25.157Z,99.90
2018-06-20T20:31:53.465Z,99.90
2018-06-20T20:34:21.762Z,99.90
2018-06-20T20:36:49.986Z,99.90
2018-06-20T20:39:18.217Z,99.90
2018-06-20T20:41:47.507Z,99.90
2018-06-20T20:44:16.885Z,99.90
2018-06-20T20:46:45.155Z,99.90
2018-06-20T20:49:13.346Z,99.90
2018-06-20T20:51:41.617Z,99.90
2018-06-20T20:54:09.781Z,99.90
2018-06-20T20:56:37.985Z,99.90
2018-06-20T20:59:06.248Z,99.90
2018-06-20T21:01:34.707Z,99.90
2018-06-20T21:04:03.290Z,99.90
2018-06-20T21:06:31.570Z,99.90
2018-06-20T21:09:00.179Z,99.90
2018-06-20T21:11:31.185Z,99.90
2018-06-20T21:14:00.150Z,99.90
2018-06-20T21:16:28.426Z,99.90
2018-06-20T21:18:58.399Z,99.90
2018-06-20T21:21:27.774Z,99.90
2018-06-20T21:23:55.983Z,99.90
2018-06-20T21:26:24.497Z,99.90
2018-06-20T21:28:53.187Z,99.90
2018-06-20T21:31:21.501Z,99.90
2018-06-20T21:33:49.727Z,99.90
2018-06-20T21:36:19.278Z,99.90
2018-06-20T21:38:47.450Z,99.90
2018-06-20T21:41:15.679Z,99.90
2018-06-20T21:43:43.883Z,99.90
2018-06-20T21:46:12.094Z,99.90
2018-06-20T21:48:41.260Z,99.90
2018-06-20T21:51:09.558Z,99.90
2018-06-20T21:53:37.790Z,99.90
2018-06-20T21:56:06.114Z,99.90
2018-06-20T21:58:34.323Z,99.90
2018-06-20T22:01:02.699Z,99.90
2018-06-20T22:03:30.937Z,99.90
2018-06-20T22:05:59.163Z,99.90
2018-06-20T22:08:27.374Z,99.90
2018-06-20T22:10:55.989Z,99.90
2018-06-20T22:13:25.045Z,99.90
2018-06-20T22:15:53.230Z,99.90
2018-06-20T22:18:22.403Z,99.90
2018-06-20T22:20:50.658Z,99.90
2018-06-20T22:23:19.350Z,99.90
2018-06-20T22:25:49.026Z,99.90
2018-06-20T22:28:17.225Z,99.90
2018-06-20T22:30:46.318Z,99.90
2018-06-20T22:33:14.549Z,99.90
2018-06-20T22:35:42.804Z,99.90
2018-06-20T22:38:11.134Z,99.90
2018-06-20T22:40:39.547Z,99.90
2018-06-20T22:43:07.805Z,99.90
2018-06-20T22:45:36.412Z,99.90
2018-06-20T22:48:05.551Z,99.90
2018-06-20T22:50:34.116Z,99.90
2018-06-20T22:53:03.092Z,99.90
2018-06-20T22:55:32.420Z,99.90
2018-06-20T22:58:00.659Z,99.90
2018-06-20T23:00:28.944Z,99.90
2018-06-20T23:02:57.716Z,99.90
2018-06-20T23:05:26.026Z,99.90
2018-06-20T23:07:54.661Z,99.90
2018-06-20T23:10:23.644Z,99.90
2018-06-20T23:12:51.911Z,99.90
2018-06-20T23:15:20.254Z,99.90
2018-06-20T23:17:49.833Z,99.90
2018-06-20T23:20:18.132Z,99.90
2018-06-20T23:22:46.439Z,99.90
2018-06-20T23:25:14.903Z,99.90
2018-06-20T23:27:43.911Z,99.90
2018-06-20T23:30:18.151Z,99.90
2018-06-20T23:32:46.452Z,99.90
2018-06-20T23:35:14.760Z,99.90
2018-06-20T23:37:45.466Z,99.90
2018-06-20T23:40:13.695Z,99.90
2018-06-20T23:42:42.041Z,99.90
2018-06-20T23:45:10.407Z,99.90
2018-06-20T23:47:39.329Z,99.90
2018-06-20T23:52:36.013Z,99.90
2018-06-20T23:55:05.923Z,99.90
2018-06-20T23:57:35.739Z,99.90
